createdAt,value
2022-11-26T00:02:29.395Z,8.30
2022-11-26T00:04:58.924Z,12.05
2022-11-26T00:07:31.024Z,13.95
2022-11-26T00:10:00.594Z,9.75
2022-11-26T00:12:36.957Z,9.82
2022-11-26T00:15:16.740Z,11.82
2022-11-26T00:17:45.006Z,8.85
2022-11-26T00:20:13.770Z,8.93
2022-11-26T00:22:45.323Z,13.75
2022-11-26T00:25:19.034Z,12.38
2022-11-26T00:27:49.369Z,11.70
2022-11-26T00:30:20.349Z,13.68
2022-11-26T00:32:49.009Z,12.48
2022-11-26T00:35:17.495Z,9.20
2022-11-26T00:37:49.092Z,11.73
2022-11-26T00:40:22.468Z,9.85
2022-11-26T00:42:55.305Z,11.18
2022-11-26T00:45:27.960Z,11.20
2022-11-26T00:47:57.431Z,12.10
2022-11-26T00:50:27.748Z,13.38
2022-11-26T00:52:57.903Z,10.15
2022-11-26T00:55:30.345Z,11.10
2022-11-26T00:58:00.061Z,8.00
2022-11-26T01:00:30.547Z,11.57
2022-11-26T01:02:58.998Z,9.07
2022-11-26T01:05:30.696Z,9.57
2022-11-26T01:08:01.175Z,12.65
2022-11-26T01:10:31.210Z,8.63
2022-11-26T01:13:00.790Z,9.98
2022-11-26T01:15:30.152Z,9.05
2022-11-26T01:17:58.817Z,9.80
2022-11-26T01:20:29.713Z,9.43
2022-11-26T01:22:59.498Z,9.50
2022-11-26T01:25:28.630Z,12.27
2022-11-26T01:27:56.837Z,10.07
2022-11-26T01:30:30.845Z,11.55
2022-11-26T01:33:00.883Z,13.23
2022-11-26T01:35:30.153Z,9.20
2022-11-26T01:37:58.377Z,7.80
2022-11-26T01:40:54.723Z,8.80
2022-11-26T01:43:27.985Z,7.47
2022-11-26T01:48:31.317Z,7.60
2022-11-26T01:51:03.743Z,5.60
2022-11-26T01:53:40.858Z,7.07
2022-11-26T01:56:17.748Z,6.28
2022-11-26T01:58:49.900Z,5.13
2022-11-26T02:01:20.201Z,6.95
2022-11-26T02:03:56.973Z,6.13
2022-11-26T02:06:31.336Z,9.88
2022-11-26T02:09:01.624Z,5.95
2022-11-26T02:11:29.867Z,8.20
2022-11-26T02:14:02.446Z,6.55
2022-11-26T02:16:51.330Z,5.75
2022-11-26T02:19:45.160Z,4.85
2022-11-26T02:24:51.921Z,9.00
2022-11-26T02:27:50.302Z,10.70
2022-11-26T02:30:20.020Z,13.90
2022-11-26T02:33:00.248Z,8.02
2022-11-26T02:35:34.861Z,6.70
2022-11-26T02:38:06.907Z,7.47
2022-11-26T02:40:35.388Z,9.18
2022-11-26T02:43:03.595Z,7.63
2022-11-26T02:45:37.829Z,13.55
2022-11-26T02:48:11.797Z,6.47
2022-11-26T02:50:43.849Z,9.00
2022-11-26T02:53:14.389Z,9.07
2022-11-26T02:55:48.417Z,7.30
2022-11-26T02:58:17.642Z,10.70
2022-11-26T03:00:50.209Z,8.25
2022-11-26T03:03:24.147Z,12.90
2022-11-26T03:05:55.748Z,14.05
2022-11-26T03:08:25.725Z,79.75
2022-11-26T03:10:54.117Z,136.70
2022-11-26T03:13:22.418Z,121.80
2022-11-26T03:15:52.042Z,67.47
2022-11-26T03:18:20.322Z,64.25
2022-11-26T03:20:52.119Z,42.92
2022-11-26T03:23:20.977Z,35.33
2022-11-26T03:25:49.204Z,26.33
2022-11-26T03:28:17.641Z,16.20
2022-11-26T03:30:45.899Z,19.05
2022-11-26T03:33:15.548Z,30.67
2022-11-26T03:35:43.786Z,24.42
2022-11-26T03:38:12.406Z,50.22
2022-11-26T03:40:40.603Z,76.88
2022-11-26T03:43:08.880Z,61.45
2022-11-26T03:45:37.101Z,85.30
2022-11-26T03:48:05.820Z,56.58
2022-11-26T03:50:35.427Z,56.50
2022-11-26T03:53:03.619Z,57.60
2022-11-26T03:55:31.838Z,57.88
2022-11-26T03:58:00.062Z,54.67
2022-11-26T04:00:28.321Z,39.53
2022-11-26T04:02:56.545Z,40.85
2022-11-26T04:05:24.844Z,30.48
2022-11-26T04:07:54.518Z,14.95
2022-11-26T04:10:22.822Z,19.70
2022-11-26T04:12:50.994Z,20.73
2022-11-26T04:15:19.311Z,29.48
2022-11-26T04:17:47.546Z,27.05
2022-11-26T04:20:16.071Z,19.38
2022-11-26T04:22:44.314Z,39.75
2022-11-26T04:25:13.907Z,22.92
2022-11-26T04:27:42.188Z,25.80
2022-11-26T04:30:11.448Z,19.85
2022-11-26T04:32:40.027Z,27.63
2022-11-26T04:35:09.431Z,27.92
2022-11-26T04:37:38.196Z,34.33
2022-11-26T04:40:07.666Z,54.83
2022-11-26T04:42:37.489Z,62.45
2022-11-26T04:45:06.353Z,54.80
2022-11-26T04:47:36.878Z,43.65
2022-11-26T04:50:08.406Z,52.08
2022-11-26T04:52:36.692Z,29.80
2022-11-26T04:55:05.854Z,47.03
2022-11-26T04:57:34.072Z,25.60
2022-11-26T05:00:03.761Z,34.25
2022-11-26T05:02:32.037Z,40.17
2022-11-26T05:05:00.354Z,30.05
2022-11-26T05:07:28.641Z,37.70
2022-11-26T05:09:56.941Z,28.60
2022-11-26T05:12:25.164Z,25.90
2022-11-26T05:14:53.413Z,44.60
2022-11-26T05:17:23.495Z,30.55
2022-11-26T05:19:51.713Z,30.83
2022-11-26T05:22:19.925Z,34.33
2022-11-26T05:24:48.150Z,42.70
2022-11-26T05:27:16.553Z,67.13
2022-11-26T05:29:44.784Z,44.75
2022-11-26T05:32:13.242Z,74.50
2022-11-26T05:34:42.867Z,101.82
2022-11-26T05:37:11.089Z,50.38
2022-11-26T05:39:39.428Z,46.83
2022-11-26T05:42:09.433Z,55.80
2022-11-26T05:44:38.235Z,71.90
2022-11-26T05:47:06.853Z,83.70
2022-11-26T05:49:35.098Z,45.17
2022-11-26T05:52:04.764Z,72.82
2022-11-26T05:54:33.004Z,58.50
2022-11-26T05:57:01.441Z,71.80
2022-11-26T05:59:29.774Z,116.70
2022-11-26T06:01:58.020Z,63.40
2022-11-26T06:04:27.297Z,62.58
2022-11-26T06:06:55.721Z,80.70
2022-11-26T06:09:25.337Z,48.33
2022-11-26T06:11:53.864Z,68.55
2022-11-26T06:14:22.100Z,57.28
2022-11-26T06:16:50.347Z,42.65
2022-11-26T06:19:18.684Z,67.55
2022-11-26T06:21:47.021Z,52.00
2022-11-26T06:24:15.272Z,14.00
2022-11-26T06:26:44.914Z,4.10
2022-11-26T06:29:13.240Z,3.58
2022-11-26T06:31:41.521Z,3.85
2022-11-26T06:34:09.752Z,3.72
2022-11-26T06:36:37.948Z,3.53
2022-11-26T06:39:06.214Z,5.15
2022-11-26T06:41:44.360Z,4.45
2022-11-26T06:44:19.861Z,13.23
2022-11-26T06:46:48.298Z,22.50
2022-11-26T06:49:17.746Z,20.50
2022-11-26T06:51:46.011Z,23.52
2022-11-26T06:54:14.925Z,26.55
2022-11-26T06:56:53.496Z,47.33
2022-11-26T06:59:23.121Z,47.53
2022-11-26T07:01:51.749Z,46.40
2022-11-26T07:04:20.141Z,52.97
2022-11-26T07:06:48.573Z,32.88
2022-11-26T07:09:17.055Z,44.70
2022-11-26T07:11:45.336Z,60.13
2022-11-26T07:14:13.759Z,45.05
2022-11-26T07:16:43.395Z,26.75
2022-11-26T07:19:14.625Z,49.53
2022-11-26T07:21:43.125Z,52.22
2022-11-26T07:24:11.485Z,34.08
2022-11-26T07:26:39.678Z,52.88
2022-11-26T07:29:07.920Z,60.58
2022-11-26T07:31:36.473Z,80.10
2022-11-26T07:34:06.186Z,89.05
2022-11-26T07:36:34.581Z,79.10
2022-11-26T07:39:04.100Z,93.82
2022-11-26T07:41:32.402Z,62.75
2022-11-26T07:44:00.768Z,62.67
2022-11-26T07:46:29.207Z,88.00
2022-11-26T07:48:58.117Z,92.05
2022-11-26T07:51:28.821Z,82.38
2022-11-26T07:53:57.441Z,69.65
2022-11-26T07:56:25.935Z,69.95
2022-11-26T07:58:54.356Z,65.78
2022-11-26T08:01:24.323Z,45.58
2022-11-26T08:03:53.259Z,78.45
2022-11-26T08:06:23.618Z,84.28
2022-11-26T08:08:53.449Z,53.22
2022-11-26T08:11:23.560Z,53.83
2022-11-26T08:13:54.959Z,57.20
2022-11-26T08:16:23.402Z,66.82
2022-11-26T08:18:54.646Z,54.65
2022-11-26T08:21:22.969Z,45.05
2022-11-26T08:23:53.190Z,71.13
2022-11-26T08:26:27.552Z,48.25
2022-11-26T08:29:01.983Z,54.25
2022-11-26T08:31:30.421Z,52.33
2022-11-26T08:33:59.718Z,39.45
2022-11-26T08:36:28.751Z,32.30
2022-11-26T08:38:59.395Z,37.53
2022-11-26T08:41:28.052Z,26.42
2022-11-26T08:44:11.693Z,24.30
2022-11-26T08:46:42.141Z,25.63
2022-11-26T08:49:13.356Z,22.35
2022-11-26T08:51:41.862Z,30.80
2022-11-26T08:54:11.889Z,33.05
2022-11-26T08:56:40.259Z,71.55
2022-11-26T08:59:08.613Z,40.53
2022-11-26T09:01:36.937Z,29.92
2022-11-26T09:04:05.929Z,26.40
2022-11-26T09:06:36.832Z,33.53
2022-11-26T09:09:17.480Z,34.58
2022-11-26T09:11:50.739Z,46.75
2022-11-26T09:14:21.002Z,35.90
2022-11-26T09:16:49.417Z,32.70
2022-11-26T09:19:18.898Z,24.13
2022-11-26T09:21:47.488Z,26.08
2022-11-26T09:24:16.588Z,16.25
2022-11-26T09:26:45.229Z,18.23
2022-11-26T09:29:17.072Z,13.75
2022-11-26T09:32:15.614Z,14.18
2022-11-26T09:34:34.278Z,7.40
2022-11-26T09:37:02.488Z,8.13
2022-11-26T09:39:30.957Z,9.68
2022-11-26T09:42:05.721Z,6.25
2022-11-26T09:44:47.713Z,5.93
2022-11-26T09:47:19.511Z,5.65
2022-11-26T09:50:00.708Z,4.60
2022-11-26T09:52:34.879Z,8.43
2022-11-26T09:55:09.418Z,5.55
2022-11-26T09:57:43.057Z,8.25
2022-11-26T10:00:23.628Z,7.70
2022-11-26T10:02:54.499Z,12.52
2022-11-26T10:05:24.774Z,6.65
2022-11-26T10:08:05.640Z,5.28
2022-11-26T10:10:44.242Z,9.00
2022-11-26T10:13:21.890Z,7.30
2022-11-26T10:16:02.006Z,5.70
2022-11-26T10:18:40.174Z,5.22
2022-11-26T10:21:27.472Z,5.97
2022-11-26T10:24:15.408Z,6.97
2022-11-26T10:26:44.552Z,8.63
2022-11-26T10:29:24.201Z,6.40
2022-11-26T10:31:58.213Z,6.93
2022-11-26T10:34:37.449Z,8.07
2022-11-26T10:37:07.500Z,6.80
2022-11-26T10:39:36.029Z,10.05
2022-11-26T10:42:10.609Z,8.40
2022-11-26T10:44:41.411Z,8.25
2022-11-26T10:47:28.827Z,9.50
2022-11-26T10:50:39.725Z,11.77
2022-11-26T10:53:06.751Z,11.20
2022-11-26T10:58:08.715Z,18.25
2022-11-26T11:00:55.824Z,14.25
2022-11-26T11:03:44.990Z,15.07
2022-11-26T11:06:29.061Z,12.50
2022-11-26T11:08:57.350Z,28.85
2022-11-26T11:11:27.248Z,19.17
2022-11-26T11:13:56.118Z,17.15
2022-11-26T11:16:28.581Z,14.30
2022-11-26T11:19:01.745Z,14.00
2022-11-26T11:21:33.772Z,16.67
2022-11-26T11:24:11.013Z,11.60
2022-11-26T11:26:44.740Z,15.85
2022-11-26T11:29:32.496Z,11.32
2022-11-26T11:32:04.530Z,15.63
2022-11-26T11:34:38.564Z,12.10
2022-11-26T11:37:16.785Z,12.57
2022-11-26T11:39:45.704Z,10.00
2022-11-26T11:42:23.224Z,13.70
2022-11-26T11:44:53.411Z,10.57
2022-11-26T11:47:35.680Z,11.25
2022-11-26T11:50:21.551Z,12.85
2022-11-26T11:53:00.735Z,11.95
2022-11-26T11:55:45.346Z,11.32
2022-11-26T11:58:31.754Z,13.10
2022-11-26T12:01:07.822Z,13.10
2022-11-26T12:04:08.428Z,9.50
2022-11-26T12:06:48.296Z,12.02
2022-11-26T12:09:24.938Z,13.10
2022-11-26T12:11:59.384Z,12.35
2022-11-26T12:14:34.275Z,14.77
2022-11-26T12:17:08.712Z,14.43
2022-11-26T12:19:41.293Z,16.88
2022-11-26T12:22:20.452Z,24.58
2022-11-26T12:24:52.256Z,12.40
2022-11-26T12:27:29.063Z,14.05
2022-11-26T12:30:01.458Z,10.93
2022-11-26T12:32:36.106Z,14.87
2022-11-26T12:35:13.321Z,13.82
2022-11-26T12:37:46.736Z,14.52
2022-11-26T12:40:25.853Z,15.50
2022-11-26T12:43:02.076Z,16.60
2022-11-26T12:45:44.893Z,18.30
2022-11-26T12:48:24.869Z,15.57
2022-11-26T12:50:57.040Z,14.93
2022-11-26T12:53:38.909Z,21.65
2022-11-26T12:56:16.022Z,16.60
2022-11-26T12:58:53.526Z,12.90
2022-11-26T13:01:24.343Z,19.88
2022-11-26T13:04:14.373Z,19.80
2022-11-26T13:06:56.935Z,18.38
2022-11-26T13:09:41.596Z,18.63
2022-11-26T13:12:15.500Z,16.98
2022-11-26T13:14:50.993Z,16.80
2022-11-26T13:17:20.442Z,15.13
2022-11-26T13:19:54.191Z,17.15
2022-11-26T13:22:49.310Z,15.88
2022-11-26T13:25:49.112Z,10.75
2022-11-26T13:28:38.516Z,14.65
2022-11-26T13:31:26.221Z,15.25
2022-11-26T13:34:14.741Z,12.90
2022-11-26T13:37:24.784Z,14.95
2022-11-26T13:40:14.532Z,13.27
2022-11-26T13:43:20.225Z,14.57
2022-11-26T13:46:21.661Z,13.45
2022-11-26T13:48:59.533Z,17.05
2022-11-26T13:51:33.988Z,16.63
2022-11-26T13:54:10.091Z,19.38
2022-11-26T13:56:39.389Z,16.55
2022-11-26T13:59:17.157Z,16.80
2022-11-26T14:01:47.192Z,12.93
2022-11-26T14:04:16.967Z,17.65
2022-11-26T14:07:19.833Z,18.45
2022-11-26T14:09:50.904Z,18.05
2022-11-26T14:12:19.832Z,18.52
2022-11-26T14:14:50.327Z,15.55
2022-11-26T14:17:24.131Z,20.85
2022-11-26T14:20:03.380Z,20.83
2022-11-26T14:22:33.755Z,22.10
2022-11-26T14:25:04.745Z,18.10
2022-11-26T14:27:34.518Z,16.98
2022-11-26T14:30:22.923Z,15.57
2022-11-26T14:33:15.852Z,27.13
2022-11-26T14:35:55.113Z,21.87
2022-11-26T14:38:27.207Z,21.30
2022-11-26T14:41:00.110Z,22.10
2022-11-26T14:43:29.147Z,21.52
2022-11-26T14:46:07.326Z,17.92
2022-11-26T14:48:41.930Z,16.88
2022-11-26T14:51:10.401Z,22.67
2022-11-26T14:53:45.842Z,20.58
2022-11-26T14:56:14.161Z,18.17
2022-11-26T14:58:47.420Z,24.13
2022-11-26T15:04:00.516Z,64.75
2022-11-26T15:06:34.856Z,26.52
2022-11-26T15:09:15.182Z,26.05
2022-11-26T15:11:48.639Z,21.10
2022-11-26T15:14:32.968Z,21.50
2022-11-26T15:17:03.980Z,21.73
2022-11-26T15:19:35.889Z,21.17
2022-11-26T15:22:07.684Z,20.85
2022-11-26T15:24:36.420Z,19.45
2022-11-26T15:27:04.804Z,23.40
2022-11-26T15:29:35.913Z,24.00
2022-11-26T15:32:06.600Z,22.88
2022-11-26T15:34:35.113Z,23.98
2022-11-26T15:37:05.036Z,23.83
2022-11-26T15:39:33.536Z,22.83
2022-11-26T15:42:05.761Z,22.17
2022-11-26T15:44:42.281Z,21.63
2022-11-26T15:47:21.688Z,22.65
2022-11-26T15:49:54.215Z,18.40
2022-11-26T15:52:26.015Z,17.65
2022-11-26T15:55:12.487Z,27.80
2022-11-26T15:57:43.217Z,18.38
2022-11-26T16:00:29.611Z,19.92
2022-11-26T16:02:59.474Z,21.80
2022-11-26T16:05:34.161Z,20.35
2022-11-26T16:08:05.334Z,21.23
2022-11-26T16:10:36.817Z,22.63
2022-11-26T16:13:18.565Z,18.02
2022-11-26T16:15:50.210Z,19.52
2022-11-26T16:18:22.902Z,22.25
2022-11-26T16:20:51.196Z,18.63
2022-11-26T16:23:28.271Z,18.38
2022-11-26T16:26:16.160Z,17.50
2022-11-26T16:28:45.112Z,18.40
2022-11-26T16:31:13.961Z,19.10
2022-11-26T16:33:43.879Z,17.25
2022-11-26T16:36:24.164Z,16.50
2022-11-26T16:38:53.415Z,17.77
2022-11-26T16:41:23.413Z,19.40
2022-11-26T16:43:51.813Z,17.70
2022-11-26T16:46:23.435Z,19.63
2022-11-26T16:48:53.976Z,42.75
2022-11-26T16:51:22.685Z,36.05
2022-11-26T16:53:50.947Z,36.70
2022-11-26T16:56:25.825Z,35.45
2022-11-26T16:58:54.179Z,53.78
2022-11-26T17:01:22.577Z,26.83
2022-11-26T17:03:52.238Z,32.40
2022-11-26T17:06:25.405Z,31.23
2022-11-26T17:08:54.490Z,31.33
2022-11-26T17:11:23.686Z,23.15
2022-11-26T17:13:51.976Z,23.80
2022-11-26T17:16:21.843Z,47.35
2022-11-26T17:18:50.588Z,28.27
2022-11-26T17:21:28.847Z,27.77
2022-11-26T17:23:57.088Z,22.23
2022-11-26T17:26:26.000Z,27.48
2022-11-26T17:28:54.288Z,40.78
2022-11-26T17:31:22.589Z,24.02
2022-11-26T17:33:51.174Z,26.70
2022-11-26T17:36:21.191Z,25.55
2022-11-26T17:38:51.379Z,23.35
2022-11-26T17:41:19.982Z,22.48
2022-11-26T17:43:48.304Z,51.65
2022-11-26T17:46:19.413Z,37.13
2022-11-26T17:48:48.891Z,38.70
2022-11-26T17:51:18.150Z,32.40
2022-11-26T17:53:46.762Z,36.58
2022-11-26T17:56:21.036Z,26.17
2022-11-26T17:58:49.478Z,39.72
2022-11-26T18:01:18.964Z,35.00
2022-11-26T18:03:47.890Z,135.57
2022-11-26T18:06:17.760Z,198.80
2022-11-26T18:08:46.889Z,56.78
2022-11-26T18:11:18.834Z,42.60
2022-11-26T18:13:47.080Z,32.08
2022-11-26T18:16:15.341Z,35.17
2022-11-26T18:18:43.592Z,44.85
2022-11-26T18:21:13.211Z,28.88
2022-11-26T18:23:48.658Z,26.73
2022-11-26T18:26:22.207Z,25.05
2022-11-26T18:28:50.696Z,25.25
2022-11-26T18:31:29.542Z,23.00
2022-11-26T18:33:58.001Z,25.98
2022-11-26T18:36:26.621Z,21.60
2022-11-26T18:38:55.325Z,23.15
2022-11-26T18:41:25.001Z,20.63
2022-11-26T18:43:53.193Z,30.50
2022-11-26T18:46:21.488Z,26.33
2022-11-26T18:48:50.915Z,28.38
2022-11-26T18:51:20.046Z,20.55
2022-11-26T18:53:48.778Z,35.50
2022-11-26T18:56:24.122Z,83.95
2022-11-26T18:58:53.944Z,37.47
2022-11-26T19:01:24.207Z,31.25
2022-11-26T19:03:53.177Z,32.95
2022-11-26T19:06:23.942Z,37.95
2022-11-26T19:08:57.283Z,29.02
2022-11-26T19:13:57.686Z,100.25
2022-11-26T19:16:26.642Z,32.47
2022-11-26T19:18:55.196Z,23.60
2022-11-26T19:21:25.394Z,20.27
2022-11-26T19:23:54.867Z,17.60
2022-11-26T19:26:23.802Z,14.23
2022-11-26T19:28:52.369Z,20.38
2022-11-26T19:31:23.608Z,20.85
2022-11-26T19:33:54.679Z,16.85
2022-11-26T19:36:23.655Z,18.52
2022-11-26T19:38:56.023Z,18.83
2022-11-26T19:41:25.927Z,22.30
2022-11-26T19:43:54.865Z,21.95
2022-11-26T21:18:38.221Z,16.73
2022-11-26T21:21:09.768Z,19.80
2022-11-26T21:23:39.429Z,16.60
2022-11-26T21:26:08.639Z,17.45
2022-11-26T21:28:36.899Z,17.67
2022-11-26T21:31:09.481Z,20.33
2022-11-26T21:33:39.294Z,22.00
2022-11-26T21:36:09.838Z,16.23
2022-11-26T21:38:38.808Z,15.90
2022-11-26T21:41:07.755Z,18.05
2022-11-26T21:43:36.025Z,19.80
2022-11-26T21:46:05.101Z,17.80
2022-11-26T21:48:33.871Z,17.83
2022-11-26T21:51:07.281Z,20.67
2022-11-26T21:53:35.782Z,15.23
2022-11-26T21:56:10.054Z,17.73
2022-11-26T21:58:38.322Z,17.80
2022-11-26T22:01:14.537Z,24.33
2022-11-26T22:03:45.876Z,18.20
2022-11-26T22:06:16.448Z,17.33
2022-11-26T22:08:47.430Z,17.33
2022-11-26T22:11:18.275Z,20.85
2022-11-26T22:13:46.512Z,24.38
2022-11-26T22:16:20.024Z,21.58
2022-11-26T22:18:48.790Z,19.23
2022-11-26T22:21:21.725Z,18.63
2022-11-26T22:23:50.983Z,24.35
2022-11-26T22:26:19.607Z,18.33
2022-11-26T22:28:49.627Z,18.77
2022-11-26T22:57:04.522Z,17.30
2022-11-26T22:59:33.248Z,16.10
2022-11-26T23:02:01.456Z,18.77
2022-11-26T23:04:29.725Z,14.10
2022-11-26T23:06:57.986Z,15.70
2022-11-26T23:09:26.413Z,14.85
2022-11-26T23:11:54.598Z,11.77
2022-11-26T23:14:24.172Z,12.73
2022-11-26T23:16:52.434Z,11.80
2022-11-26T23:19:20.800Z,15.32
2022-11-26T23:21:49.891Z,13.38
2022-11-26T23:24:18.441Z,14.30
2022-11-26T23:26:46.929Z,19.63
2022-11-26T23:29:15.705Z,11.82
2022-11-26T23:31:46.083Z,15.00
2022-11-26T23:34:15.097Z,14.05
2022-11-26T23:36:43.558Z,13.60
2022-11-26T23:39:13.553Z,15.93
2022-11-26T23:41:41.780Z,14.25
2022-11-26T23:44:10.254Z,13.70
2022-11-26T23:46:38.903Z,11.93
2022-11-26T23:49:08.742Z,14.60
2022-11-26T23:51:36.985Z,13.25
2022-11-26T23:54:05.511Z,13.48
2022-11-26T23:56:35.734Z,17.52
2022-11-26T23:59:05.460Z,16.15
